Aérodrome :
LOGIN :

S'inscrire | Disclaimer

   EN    FR    IT 

 










Légende :    VFR   VFR Marginal   IFR   IFR Intensif   IFR Très Intensif
Visi : 
Plafond : 
>= 8 km
>= 3000ft
5 à 8 km
1000 à 3000 ft
1500m à 5 km
500 à 1000 ft
800 à 1500m
200 à 500 ft
< 800m
< 200 ft
Symboles :   Orages  Brouillard  Fortes neiges  Fortes précipitations  Vent > 20 kt
SIGMETs :   Divers  Orages  Givrage  Turbulence  Onde Orograph.  Cendres Volcan.






- Altitude de l'aérodrome : 2302 ft


LEAB - Albacete

DERNIER METAR :
  • 030700Z 12004KT CAVOK 18/15 Q1019 NOSIG

METARs EXPIRÉS :
  • 030630Z 12004KT CAVOK 17/14 Q1019 NOSIG
  • 030600Z 13004KT CAVOK 16/14 Q1019 NOSIG
  • 030530Z 14004KT CAVOK 16/15 Q1019 NOSIG
  • 030500Z 15005KT CAVOK 16/14 Q1019 NOSIG
  • 030430Z 16006KT CAVOK 16/14 Q1018 NOSIG

TAF TAF LEAB
Valide du 03 à 06h jusqu'au 04 à 06h UTC


030500Z 0306/0406 16008KT CAVOK TX33/0315Z TN17/0406Z



MET'MAP, la Météo Aéronautique d'un coup d'oeil ! - Copyright ORBIFLY Décembre 2007 - Disclaimer

ORBIFLY MET'MAP TEAM :

Programmation & Développement : Alexandra Zaïnal
Sur une idée originale de : Baudouin d'Aumeries
Assistance à la programmation : Marc-Olivier Méhu
Soutien technique & logistique : Manuel Goepfert

Contact : metmap@orbifly.com




SOURCES & CREDITS :

   NOAA